sensor_id;sensor_type;location;lat;lon;timestamp;P1;durP1;ratioP1;P2;durP2;ratioP2
44985;SDS011;30721;49.380;7.736;2022-12-31T00:01:13;2.10;;;1.75;;
44985;SDS011;30721;49.380;7.736;2022-12-31T00:03:39;2.92;;;1.52;;
44985;SDS011;30721;49.380;7.736;2022-12-31T00:06:15;3.78;;;2.30;;
44985;SDS011;30721;49.380;7.736;2022-12-31T00:08:41;2.30;;;1.90;;
44985;SDS011;30721;49.380;7.736;2022-12-31T00:11:06;2.90;;;1.95;;
44985;SDS011;30721;49.380;7.736;2022-12-31T00:13:32;3.22;;;2.13;;
44985;SDS011;30721;49.380;7.736;2022-12-31T00:16:11;3.60;;;2.20;;
44985;SDS011;30721;49.380;7.736;2022-12-31T00:18:38;3.88;;;2.30;;
44985;SDS011;30721;49.380;7.736;2022-12-31T00:21:07;4.40;;;2.15;;
44985;SDS011;30721;49.380;7.736;2022-12-31T00:23:33;2.60;;;2.20;;
44985;SDS011;30721;49.380;7.736;2022-12-31T00:26:06;2.75;;;1.75;;
44985;SDS011;30721;49.380;7.736;2022-12-31T00:28:35;3.28;;;2.15;;
44985;SDS011;30721;49.380;7.736;2022-12-31T00:31:05;3.85;;;2.22;;
44985;SDS011;30721;49.380;7.736;2022-12-31T00:33:35;2.45;;;1.90;;
44985;SDS011;30721;49.380;7.736;2022-12-31T00:36:17;2.58;;;2.03;;
44985;SDS011;30721;49.380;7.736;2022-12-31T00:38:47;4.63;;;1.88;;
44985;SDS011;30721;49.380;7.736;2022-12-31T00:41:14;4.47;;;2.15;;
44985;SDS011;30721;49.380;7.736;2022-12-31T00:43:41;3.08;;;1.92;;
44985;SDS011;30721;49.380;7.736;2022-12-31T00:46:07;3.05;;;1.92;;
44985;SDS011;30721;49.380;7.736;2022-12-31T00:48:33;3.45;;;1.85;;
44985;SDS011;30721;49.380;7.736;2022-12-31T00:50:59;3.30;;;2.17;;
44985;SDS011;30721;49.380;7.736;2022-12-31T00:53:25;1.73;;;1.60;;
44985;SDS011;30721;49.380;7.736;2022-12-31T00:55:51;5.03;;;2.63;;
44985;SDS011;30721;49.380;7.736;2022-12-31T00:58:18;3.20;;;1.70;;
44985;SDS011;30721;49.380;7.736;2022-12-31T01:00:43;5.57;;;2.20;;
44985;SDS011;30721;49.380;7.736;2022-12-31T01:03:09;3.72;;;2.63;;
44985;SDS011;30721;49.380;7.736;2022-12-31T01:05:34;2.63;;;1.83;;
44985;SDS011;30721;49.380;7.736;2022-12-31T01:08:00;3.53;;;1.98;;
44985;SDS011;30721;49.380;7.736;2022-12-31T01:10:26;4.18;;;1.98;;
44985;SDS011;30721;49.380;7.736;2022-12-31T01:13:11;4.83;;;2.33;;
44985;SDS011;30721;49.380;7.736;2022-12-31T01:15:37;3.95;;;1.88;;
44985;SDS011;30721;49.380;7.736;2022-12-31T01:18:03;3.33;;;1.70;;
44985;SDS011;30721;49.380;7.736;2022-12-31T01:20:29;3.53;;;1.60;;
44985;SDS011;30721;49.380;7.736;2022-12-31T01:22:55;2.65;;;1.70;;
44985;SDS011;30721;49.380;7.736;2022-12-31T01:25:20;3.10;;;1.70;;
44985;SDS011;30721;49.380;7.736;2022-12-31T01:27:45;2.20;;;1.80;;
44985;SDS011;30721;49.380;7.736;2022-12-31T01:30:11;2.15;;;1.95;;
44985;SDS011;30721;49.380;7.736;2022-12-31T01:32:36;2.28;;;1.77;;
44985;SDS011;30721;49.380;7.736;2022-12-31T01:35:02;2.70;;;1.70;;
44985;SDS011;30721;49.380;7.736;2022-12-31T01:37:27;2.45;;;1.52;;
44985;SDS011;30721;49.380;7.736;2022-12-31T01:39:53;2.25;;;1.50;;
44985;SDS011;30721;49.380;7.736;2022-12-31T01:42:18;2.42;;;2.13;;
44985;SDS011;30721;49.380;7.736;2022-12-31T01:44:46;2.05;;;1.60;;
44985;SDS011;30721;49.380;7.736;2022-12-31T01:47:14;1.73;;;1.50;;
44985;SDS011;30721;49.380;7.736;2022-12-31T01:49:44;2.10;;;1.83;;
44985;SDS011;30721;49.380;7.736;2022-12-31T01:55:23;1.83;;;1.23;;
44985;SDS011;30721;49.380;7.736;2022-12-31T01:57:53;2.72;;;1.77;;
44985;SDS011;30721;49.380;7.736;2022-12-31T02:00:21;2.28;;;1.40;;
44985;SDS011;30721;49.380;7.736;2022-12-31T02:02:46;3.05;;;1.83;;
44985;SDS011;30721;49.380;7.736;2022-12-31T02:05:35;2.53;;;1.25;;
44985;SDS011;30721;49.380;7.736;2022-12-31T02:08:04;2.38;;;1.48;;
44985;SDS011;30721;49.380;7.736;2022-12-31T02:10:30;1.45;;;1.30;;
44985;SDS011;30721;49.380;7.736;2022-12-31T02:12:55;2.78;;;1.48;;
44985;SDS011;30721;49.380;7.736;2022-12-31T02:15:24;4.22;;;2.22;;
44985;SDS011;30721;49.380;7.736;2022-12-31T02:23:48;2.17;;;1.95;;
44985;SDS011;30721;49.380;7.736;2022-12-31T02:32:04;3.13;;;1.20;;
44985;SDS011;30721;49.380;7.736;2022-12-31T02:34:40;2.38;;;1.15;;
44985;SDS011;30721;49.380;7.736;2022-12-31T02:37:11;3.10;;;1.38;;
44985;SDS011;30721;49.380;7.736;2022-12-31T02:39:37;2.97;;;1.73;;
44985;SDS011;30721;49.380;7.736;2022-12-31T02:42:03;2.97;;;1.52;;
44985;SDS011;30721;49.380;7.736;2022-12-31T02:44:30;2.35;;;1.33;;
44985;SDS011;30721;49.380;7.736;2022-12-31T03:01:08;1.92;;;1.50;;
44985;SDS011;30721;49.380;7.736;2022-12-31T03:04:03;1.77;;;1.50;;
44985;SDS011;30721;49.380;7.736;2022-12-31T03:06:49;3.85;;;1.40;;
44985;SDS011;30721;49.380;7.736;2022-12-31T03:09:16;3.78;;;1.52;;
44985;SDS011;30721;49.380;7.736;2022-12-31T03:11:41;3.20;;;1.80;;
44985;SDS011;30721;49.380;7.736;2022-12-31T03:14:25;2.55;;;1.50;;
44985;SDS011;30721;49.380;7.736;2022-12-31T03:16:50;2.13;;;1.40;;
44985;SDS011;30721;49.380;7.736;2022-12-31T03:19:16;1.50;;;1.40;;
44985;SDS011;30721;49.380;7.736;2022-12-31T03:22:00;3.05;;;1.60;;
44985;SDS011;30721;49.380;7.736;2022-12-31T03:24:45;2.58;;;1.70;;
44985;SDS011;30721;49.380;7.736;2022-12-31T03:27:29;2.95;;;1.77;;
44985;SDS011;30721;49.380;7.736;2022-12-31T03:29:55;2.15;;;1.83;;
44985;SDS011;30721;49.380;7.736;2022-12-31T03:32:20;3.60;;;1.40;;
44985;SDS011;30721;49.380;7.736;2022-12-31T03:34:45;2.45;;;1.45;;
44985;SDS011;30721;49.380;7.736;2022-12-31T03:37:11;2.22;;;1.50;;
44985;SDS011;30721;49.380;7.736;2022-12-31T03:39:36;2.92;;;1.85;;
44985;SDS011;30721;49.380;7.736;2022-12-31T03:42:01;4.03;;;1.40;;
44985;SDS011;30721;49.380;7.736;2022-12-31T03:44:27;3.60;;;1.60;;
44985;SDS011;30721;49.380;7.736;2022-12-31T03:46:52;2.15;;;1.70;;
44985;SDS011;30721;49.380;7.736;2022-12-31T03:49:17;1.58;;;1.17;;
44985;SDS011;30721;49.380;7.736;2022-12-31T03:51:43;4.18;;;1.40;;
44985;SDS011;30721;49.380;7.736;2022-12-31T03:54:08;1.58;;;1.00;;
44985;SDS011;30721;49.380;7.736;2022-12-31T03:56:33;2.03;;;1.45;;
44985;SDS011;30721;49.380;7.736;2022-12-31T03:58:59;4.00;;;1.40;;
44985;SDS011;30721;49.380;7.736;2022-12-31T04:01:24;2.63;;;1.30;;
44985;SDS011;30721;49.380;7.736;2022-12-31T04:03:50;3.28;;;1.20;;
44985;SDS011;30721;49.380;7.736;2022-12-31T04:06:15;2.42;;;1.02;;
44985;SDS011;30721;49.380;7.736;2022-12-31T04:08:41;1.83;;;1.27;;
44985;SDS011;30721;49.380;7.736;2022-12-31T04:11:06;1.58;;;1.20;;
44985;SDS011;30721;49.380;7.736;2022-12-31T04:13:31;1.90;;;1.10;;
44985;SDS011;30721;49.380;7.736;2022-12-31T04:15:57;1.90;;;1.20;;
44985;SDS011;30721;49.380;7.736;2022-12-31T04:18:22;1.45;;;1.00;;
44985;SDS011;30721;49.380;7.736;2022-12-31T04:20:47;2.63;;;1.33;;
44985;SDS011;30721;49.380;7.736;2022-12-31T04:23:13;1.40;;;0.98;;
44985;SDS011;30721;49.380;7.736;2022-12-31T04:25:38;2.10;;;0.90;;
44985;SDS011;30721;49.380;7.736;2022-12-31T04:28:03;1.33;;;1.20;;
44985;SDS011;30721;49.380;7.736;2022-12-31T04:30:29;2.00;;;1.40;;
44985;SDS011;30721;49.380;7.736;2022-12-31T04:32:54;2.20;;;1.20;;
44985;SDS011;30721;49.380;7.736;2022-12-31T04:35:19;1.50;;;1.10;;
44985;SDS011;30721;49.380;7.736;2022-12-31T04:37:45;1.77;;;1.25;;
44985;SDS011;30721;49.380;7.736;2022-12-31T04:40:10;1.05;;;0.93;;
44985;SDS011;30721;49.380;7.736;2022-12-31T04:42:36;1.92;;;1.08;;
44985;SDS011;30721;49.380;7.736;2022-12-31T04:45:02;2.30;;;1.23;;
44985;SDS011;30721;49.380;7.736;2022-12-31T04:47:28;1.98;;;1.10;;
44985;SDS011;30721;49.380;7.736;2022-12-31T04:49:53;1.77;;;1.50;;
44985;SDS011;30721;49.380;7.736;2022-12-31T04:52:19;3.38;;;1.27;;
44985;SDS011;30721;49.380;7.736;2022-12-31T04:54:44;2.13;;;1.10;;
44985;SDS011;30721;49.380;7.736;2022-12-31T04:57:09;1.88;;;1.20;;
44985;SDS011;30721;49.380;7.736;2022-12-31T04:59:35;1.30;;;1.20;;
44985;SDS011;30721;49.380;7.736;2022-12-31T05:02:00;1.10;;;0.90;;
44985;SDS011;30721;49.380;7.736;2022-12-31T05:04:25;1.55;;;1.45;;
44985;SDS011;30721;49.380;7.736;2022-12-31T05:06:51;1.02;;;0.90;;
44985;SDS011;30721;49.380;7.736;2022-12-31T05:09:16;1.52;;;0.90;;
44985;SDS011;30721;49.380;7.736;2022-12-31T05:11:42;1.98;;;1.13;;
44985;SDS011;30721;49.380;7.736;2022-12-31T05:14:07;2.47;;;1.15;;
44985;SDS011;30721;49.380;7.736;2022-12-31T05:16:32;1.40;;;1.30;;
44985;SDS011;30721;49.380;7.736;2022-12-31T05:18:58;3.28;;;1.00;;
44985;SDS011;30721;49.380;7.736;2022-12-31T05:21:23;2.05;;;1.02;;
44985;SDS011;30721;49.380;7.736;2022-12-31T05:23:48;2.00;;;1.02;;
44985;SDS011;30721;49.380;7.736;2022-12-31T05:26:14;2.35;;;1.25;;
44985;SDS011;30721;49.380;7.736;2022-12-31T05:28:39;1.10;;;0.90;;
44985;SDS011;30721;49.380;7.736;2022-12-31T05:31:05;1.10;;;1.00;;
44985;SDS011;30721;49.380;7.736;2022-12-31T05:33:30;1.95;;;1.00;;
44985;SDS011;30721;49.380;7.736;2022-12-31T05:35:56;1.00;;;0.90;;
44985;SDS011;30721;49.380;7.736;2022-12-31T05:38:23;2.08;;;0.90;;
44985;SDS011;30721;49.380;7.736;2022-12-31T05:40:48;1.10;;;0.88;;
44985;SDS011;30721;49.380;7.736;2022-12-31T05:43:14;1.83;;;1.17;;
44985;SDS011;30721;49.380;7.736;2022-12-31T05:45:39;1.95;;;1.40;;
44985;SDS011;30721;49.380;7.736;2022-12-31T05:48:05;2.95;;;1.27;;
44985;SDS011;30721;49.380;7.736;2022-12-31T05:50:30;1.38;;;1.02;;
44985;SDS011;30721;49.380;7.736;2022-12-31T05:52:56;2.17;;;1.20;;
44985;SDS011;30721;49.380;7.736;2022-12-31T05:55:21;1.17;;;0.95;;
44985;SDS011;30721;49.380;7.736;2022-12-31T05:57:47;2.25;;;1.33;;
44985;SDS011;30721;49.380;7.736;2022-12-31T06:00:12;2.15;;;1.17;;
44985;SDS011;30721;49.380;7.736;2022-12-31T06:02:38;1.92;;;1.00;;
44985;SDS011;30721;49.380;7.736;2022-12-31T06:05:03;2.90;;;1.45;;
44985;SDS011;30721;49.380;7.736;2022-12-31T06:07:29;1.33;;;1.00;;
44985;SDS011;30721;49.380;7.736;2022-12-31T06:09:54;2.38;;;1.10;;
44985;SDS011;30721;49.380;7.736;2022-12-31T06:12:20;1.40;;;1.20;;
44985;SDS011;30721;49.380;7.736;2022-12-31T06:14:45;1.60;;;1.10;;
44985;SDS011;30721;49.380;7.736;2022-12-31T06:17:10;1.23;;;1.08;;
44985;SDS011;30721;49.380;7.736;2022-12-31T06:19:36;2.03;;;1.27;;
44985;SDS011;30721;49.380;7.736;2022-12-31T06:22:01;1.58;;;1.27;;
44985;SDS011;30721;49.380;7.736;2022-12-31T06:24:27;2.17;;;1.60;;
44985;SDS011;30721;49.380;7.736;2022-12-31T06:26:52;1.50;;;1.30;;
44985;SDS011;30721;49.380;7.736;2022-12-31T06:29:17;2.75;;;1.40;;
44985;SDS011;30721;49.380;7.736;2022-12-31T06:31:43;2.50;;;1.48;;
44985;SDS011;30721;49.380;7.736;2022-12-31T06:34:08;1.75;;;1.42;;
44985;SDS011;30721;49.380;7.736;2022-12-31T06:36:33;2.58;;;1.10;;
44985;SDS011;30721;49.380;7.736;2022-12-31T06:39:01;3.22;;;1.50;;
44985;SDS011;30721;49.380;7.736;2022-12-31T06:41:26;1.85;;;1.00;;
44985;SDS011;30721;49.380;7.736;2022-12-31T06:43:52;2.65;;;1.23;;
44985;SDS011;30721;49.380;7.736;2022-12-31T06:46:17;2.00;;;1.00;;
44985;SDS011;30721;49.380;7.736;2022-12-31T06:48:43;3.15;;;1.48;;
44985;SDS011;30721;49.380;7.736;2022-12-31T06:51:10;2.03;;;1.35;;
44985;SDS011;30721;49.380;7.736;2022-12-31T06:53:37;2.83;;;1.40;;
44985;SDS011;30721;49.380;7.736;2022-12-31T06:56:06;2.13;;;1.70;;
44985;SDS011;30721;49.380;7.736;2022-12-31T06:58:33;2.30;;;1.80;;
44985;SDS011;30721;49.380;7.736;2022-12-31T07:03:28;3.15;;;1.42;;
44985;SDS011;30721;49.380;7.736;2022-12-31T07:06:16;2.70;;;1.33;;
44985;SDS011;30721;49.380;7.736;2022-12-31T07:09:04;2.58;;;1.45;;
44985;SDS011;30721;49.380;7.736;2022-12-31T07:14:28;2.33;;;1.58;;
44985;SDS011;30721;49.380;7.736;2022-12-31T07:19:38;3.17;;;1.48;;
44985;SDS011;30721;49.380;7.736;2022-12-31T07:22:15;1.85;;;1.20;;
44985;SDS011;30721;49.380;7.736;2022-12-31T07:24:42;3.17;;;1.90;;
44985;SDS011;30721;49.380;7.736;2022-12-31T07:27:32;1.52;;;1.30;;
44985;SDS011;30721;49.380;7.736;2022-12-31T07:30:08;3.13;;;1.60;;
44985;SDS011;30721;49.380;7.736;2022-12-31T07:38:22;1.90;;;1.35;;
44985;SDS011;30721;49.380;7.736;2022-12-31T07:43:35;3.85;;;1.50;;
44985;SDS011;30721;49.380;7.736;2022-12-31T07:48:29;2.45;;;1.45;;
44985;SDS011;30721;49.380;7.736;2022-12-31T07:50:55;3.28;;;1.58;;
44985;SDS011;30721;49.380;7.736;2022-12-31T07:53:22;2.55;;;1.42;;
44985;SDS011;30721;49.380;7.736;2022-12-31T07:55:49;4.60;;;1.88;;
44985;SDS011;30721;49.380;7.736;2022-12-31T07:58:18;2.42;;;1.98;;
44985;SDS011;30721;49.380;7.736;2022-12-31T08:00:46;2.95;;;1.65;;
44985;SDS011;30721;49.380;7.736;2022-12-31T08:13:53;2.17;;;1.17;;
44985;SDS011;30721;49.380;7.736;2022-12-31T08:16:20;2.67;;;1.75;;
44985;SDS011;30721;49.380;7.736;2022-12-31T08:18:46;3.17;;;1.30;;
44985;SDS011;30721;49.380;7.736;2022-12-31T08:24:26;4.57;;;1.88;;
44985;SDS011;30721;49.380;7.736;2022-12-31T08:27:00;3.10;;;1.83;;
44985;SDS011;30721;49.380;7.736;2022-12-31T08:29:53;3.75;;;1.60;;
44985;SDS011;30721;49.380;7.736;2022-12-31T08:32:33;3.83;;;1.35;;
44985;SDS011;30721;49.380;7.736;2022-12-31T08:37:40;4.13;;;1.35;;
44985;SDS011;30721;49.380;7.736;2022-12-31T08:45:49;1.73;;;1.17;;
44985;SDS011;30721;49.380;7.736;2022-12-31T08:48:30;3.83;;;1.42;;
44985;SDS011;30721;49.380;7.736;2022-12-31T08:50:58;1.90;;;0.98;;
44985;SDS011;30721;49.380;7.736;2022-12-31T08:53:24;2.78;;;1.50;;
44985;SDS011;30721;49.380;7.736;2022-12-31T08:55:51;3.30;;;2.03;;
44985;SDS011;30721;49.380;7.736;2022-12-31T09:01:07;3.90;;;1.77;;
44985;SDS011;30721;49.380;7.736;2022-12-31T09:08:58;2.95;;;1.15;;
44985;SDS011;30721;49.380;7.736;2022-12-31T09:20:15;1.60;;;1.48;;
44985;SDS011;30721;49.380;7.736;2022-12-31T09:22:46;1.17;;;1.02;;
44985;SDS011;30721;49.380;7.736;2022-12-31T09:25:15;2.70;;;1.70;;
44985;SDS011;30721;49.380;7.736;2022-12-31T09:27:45;1.58;;;1.40;;
44985;SDS011;30721;49.380;7.736;2022-12-31T09:30:27;1.65;;;1.00;;
44985;SDS011;30721;49.380;7.736;2022-12-31T09:38:03;3.15;;;1.65;;
44985;SDS011;30721;49.380;7.736;2022-12-31T09:41:21;1.83;;;1.40;;
44985;SDS011;30721;49.380;7.736;2022-12-31T09:52:24;3.00;;;1.48;;
44985;SDS011;30721;49.380;7.736;2022-12-31T09:57:37;1.55;;;1.45;;
44985;SDS011;30721;49.380;7.736;2022-12-31T10:00:12;3.40;;;1.25;;
44985;SDS011;30721;49.380;7.736;2022-12-31T10:07:52;1.88;;;1.10;;
44985;SDS011;30721;49.380;7.736;2022-12-31T10:10:22;1.13;;;1.02;;
44985;SDS011;30721;49.380;7.736;2022-12-31T10:34:45;2.92;;;0.85;;
44985;SDS011;30721;49.380;7.736;2022-12-31T10:37:19;1.67;;;1.08;;
44985;SDS011;30721;49.380;7.736;2022-12-31T10:39:53;1.85;;;1.13;;
44985;SDS011;30721;49.380;7.736;2022-12-31T10:43:24;3.63;;;1.10;;
44985;SDS011;30721;49.380;7.736;2022-12-31T10:45:44;1.58;;;0.90;;
44985;SDS011;30721;49.380;7.736;2022-12-31T10:51:46;1.10;;;1.00;;
44985;SDS011;30721;49.380;7.736;2022-12-31T11:19:23;2.65;;;0.95;;
44985;SDS011;30721;49.380;7.736;2022-12-31T11:38:39;1.23;;;1.13;;
44985;SDS011;30721;49.380;7.736;2022-12-31T11:41:32;1.15;;;0.90;;
44985;SDS011;30721;49.380;7.736;2022-12-31T11:44:17;1.10;;;1.00;;
44985;SDS011;30721;49.380;7.736;2022-12-31T11:55:49;1.63;;;0.90;;
44985;SDS011;30721;49.380;7.736;2022-12-31T11:58:19;0.85;;;0.80;;
44985;SDS011;30721;49.380;7.736;2022-12-31T12:00:51;2.88;;;0.70;;
44985;SDS011;30721;49.380;7.736;2022-12-31T12:03:20;1.40;;;0.90;;
44985;SDS011;30721;49.380;7.736;2022-12-31T12:05:45;1.35;;;0.85;;
44985;SDS011;30721;49.380;7.736;2022-12-31T12:08:11;1.42;;;0.90;;
44985;SDS011;30721;49.380;7.736;2022-12-31T12:10:47;1.23;;;0.75;;
44985;SDS011;30721;49.380;7.736;2022-12-31T12:15:46;0.80;;;0.80;;
44985;SDS011;30721;49.380;7.736;2022-12-31T12:18:22;2.65;;;0.80;;
44985;SDS011;30721;49.380;7.736;2022-12-31T12:21:01;1.35;;;0.65;;
44985;SDS011;30721;49.380;7.736;2022-12-31T12:23:29;1.30;;;1.00;;
44985;SDS011;30721;49.380;7.736;2022-12-31T12:25:56;1.20;;;0.80;;
44985;SDS011;30721;49.380;7.736;2022-12-31T12:28:24;0.80;;;0.57;;
44985;SDS011;30721;49.380;7.736;2022-12-31T12:31:04;1.40;;;1.30;;
44985;SDS011;30721;49.380;7.736;2022-12-31T12:33:39;0.60;;;0.60;;
44985;SDS011;30721;49.380;7.736;2022-12-31T12:36:07;1.83;;;0.77;;
44985;SDS011;30721;49.380;7.736;2022-12-31T12:38:36;1.25;;;0.70;;
44985;SDS011;30721;49.380;7.736;2022-12-31T12:41:03;1.65;;;0.80;;
44985;SDS011;30721;49.380;7.736;2022-12-31T12:43:31;0.80;;;0.70;;
44985;SDS011;30721;49.380;7.736;2022-12-31T12:45:59;0.73;;;0.70;;
44985;SDS011;30721;49.380;7.736;2022-12-31T12:48:39;0.88;;;0.60;;
44985;SDS011;30721;49.380;7.736;2022-12-31T12:51:13;1.05;;;0.70;;
44985;SDS011;30721;49.380;7.736;2022-12-31T12:59:11;1.20;;;0.75;;
44985;SDS011;30721;49.380;7.736;2022-12-31T13:01:49;1.25;;;0.60;;
44985;SDS011;30721;49.380;7.736;2022-12-31T13:16:44;1.58;;;0.77;;
44985;SDS011;30721;49.380;7.736;2022-12-31T13:19:25;0.90;;;0.60;;
44985;SDS011;30721;49.380;7.736;2022-12-31T13:27:29;0.98;;;0.50;;
44985;SDS011;30721;49.380;7.736;2022-12-31T13:30:11;1.00;;;0.85;;
44985;SDS011;30721;49.380;7.736;2022-12-31T13:35:21;1.95;;;0.88;;
44985;SDS011;30721;49.380;7.736;2022-12-31T13:37:48;1.10;;;0.52;;
44985;SDS011;30721;49.380;7.736;2022-12-31T13:40:20;3.30;;;0.57;;
44985;SDS011;30721;49.380;7.736;2022-12-31T13:42:53;0.60;;;0.60;;
44985;SDS011;30721;49.380;7.736;2022-12-31T13:45:23;0.70;;;0.70;;
44985;SDS011;30721;49.380;7.736;2022-12-31T13:48:04;0.85;;;0.63;;
44985;SDS011;30721;49.380;7.736;2022-12-31T13:50:41;0.95;;;0.30;;
44985;SDS011;30721;49.380;7.736;2022-12-31T13:53:17;0.80;;;0.63;;
44985;SDS011;30721;49.380;7.736;2022-12-31T13:56:08;1.15;;;0.70;;
44985;SDS011;30721;49.380;7.736;2022-12-31T14:01:15;2.45;;;0.50;;
44985;SDS011;30721;49.380;7.736;2022-12-31T14:08:56;1.02;;;0.52;;
44985;SDS011;30721;49.380;7.736;2022-12-31T14:11:27;1.35;;;0.60;;
44985;SDS011;30721;49.380;7.736;2022-12-31T14:19:17;0.57;;;0.40;;
44985;SDS011;30721;49.380;7.736;2022-12-31T14:22:03;1.30;;;0.70;;
44985;SDS011;30721;49.380;7.736;2022-12-31T14:24:48;2.28;;;0.57;;
44985;SDS011;30721;49.380;7.736;2022-12-31T14:27:27;0.63;;;0.50;;
44985;SDS011;30721;49.380;7.736;2022-12-31T14:40:42;0.85;;;0.50;;
44985;SDS011;30721;49.380;7.736;2022-12-31T14:46:03;0.50;;;0.50;;
44985;SDS011;30721;49.380;7.736;2022-12-31T14:51:04;0.82;;;0.60;;
44985;SDS011;30721;49.380;7.736;2022-12-31T14:53:30;0.80;;;0.45;;
44985;SDS011;30721;49.380;7.736;2022-12-31T14:55:57;0.77;;;0.60;;
44985;SDS011;30721;49.380;7.736;2022-12-31T15:00:56;0.55;;;0.55;;
44985;SDS011;30721;49.380;7.736;2022-12-31T15:24:55;0.83;;;0.50;;
44985;SDS011;30721;49.380;7.736;2022-12-31T15:27:33;1.52;;;0.73;;
44985;SDS011;30721;49.380;7.736;2022-12-31T15:30:05;2.13;;;0.57;;
44985;SDS011;30721;49.380;7.736;2022-12-31T15:32:40;1.08;;;0.50;;
44985;SDS011;30721;49.380;7.736;2022-12-31T15:35:23;0.73;;;0.50;;
44985;SDS011;30721;49.380;7.736;2022-12-31T15:40:25;0.88;;;0.70;;
44985;SDS011;30721;49.380;7.736;2022-12-31T15:45:53;1.58;;;0.50;;
44985;SDS011;30721;49.380;7.736;2022-12-31T15:48:22;0.50;;;0.50;;
44985;SDS011;30721;49.380;7.736;2022-12-31T15:50:50;1.50;;;0.50;;
44985;SDS011;30721;49.380;7.736;2022-12-31T15:53:32;0.30;;;0.30;;
44985;SDS011;30721;49.380;7.736;2022-12-31T15:56:00;0.50;;;0.50;;
44985;SDS011;30721;49.380;7.736;2022-12-31T15:58:26;1.40;;;0.55;;
44985;SDS011;30721;49.380;7.736;2022-12-31T16:01:02;1.63;;;0.50;;
44985;SDS011;30721;49.380;7.736;2022-12-31T16:03:36;0.95;;;0.70;;
44985;SDS011;30721;49.380;7.736;2022-12-31T16:06:07;0.60;;;0.60;;
44985;SDS011;30721;49.380;7.736;2022-12-31T16:08:35;0.50;;;0.50;;
44985;SDS011;30721;49.380;7.736;2022-12-31T16:11:05;0.80;;;0.60;;
44985;SDS011;30721;49.380;7.736;2022-12-31T16:13:31;0.80;;;0.70;;
44985;SDS011;30721;49.380;7.736;2022-12-31T16:16:03;0.98;;;0.52;;
44985;SDS011;30721;49.380;7.736;2022-12-31T16:18:35;0.77;;;0.50;;
44985;SDS011;30721;49.380;7.736;2022-12-31T16:21:04;1.05;;;0.60;;
44985;SDS011;30721;49.380;7.736;2022-12-31T16:23:30;0.82;;;0.63;;
44985;SDS011;30721;49.380;7.736;2022-12-31T16:25:56;1.48;;;0.70;;
44985;SDS011;30721;49.380;7.736;2022-12-31T16:28:27;2.47;;;0.65;;
44985;SDS011;30721;49.380;7.736;2022-12-31T16:31:01;0.57;;;0.50;;
44985;SDS011;30721;49.380;7.736;2022-12-31T16:33:27;2.08;;;0.70;;
44985;SDS011;30721;49.380;7.736;2022-12-31T16:35:55;1.60;;;0.75;;
44985;SDS011;30721;49.380;7.736;2022-12-31T16:38:21;0.98;;;0.63;;
44985;SDS011;30721;49.380;7.736;2022-12-31T16:43:26;1.25;;;0.85;;
44985;SDS011;30721;49.380;7.736;2022-12-31T16:46:06;1.88;;;0.60;;
44985;SDS011;30721;49.380;7.736;2022-12-31T16:48:34;1.50;;;0.50;;
44985;SDS011;30721;49.380;7.736;2022-12-31T16:51:00;1.05;;;0.85;;
44985;SDS011;30721;49.380;7.736;2022-12-31T16:53:26;2.35;;;0.60;;
44985;SDS011;30721;49.380;7.736;2022-12-31T16:56:10;0.85;;;0.60;;
44985;SDS011;30721;49.380;7.736;2022-12-31T16:58:45;1.85;;;0.68;;
44985;SDS011;30721;49.380;7.736;2022-12-31T17:01:15;2.50;;;1.02;;
44985;SDS011;30721;49.380;7.736;2022-12-31T17:03:43;1.55;;;0.80;;
44985;SDS011;30721;49.380;7.736;2022-12-31T17:06:12;3.00;;;1.13;;
44985;SDS011;30721;49.380;7.736;2022-12-31T17:11:04;1.83;;;1.05;;
44985;SDS011;30721;49.380;7.736;2022-12-31T17:13:37;1.25;;;1.08;;
44985;SDS011;30721;49.380;7.736;2022-12-31T17:16:03;1.15;;;0.98;;
44985;SDS011;30721;49.380;7.736;2022-12-31T17:18:31;2.67;;;0.90;;
44985;SDS011;30721;49.380;7.736;2022-12-31T17:21:04;1.73;;;0.60;;
44985;SDS011;30721;49.380;7.736;2022-12-31T17:23:32;0.60;;;0.60;;
44985;SDS011;30721;49.380;7.736;2022-12-31T17:26:02;0.95;;;0.63;;
44985;SDS011;30721;49.380;7.736;2022-12-31T17:28:45;2.35;;;0.60;;
44985;SDS011;30721;49.380;7.736;2022-12-31T17:31:53;1.23;;;0.60;;
44985;SDS011;30721;49.380;7.736;2022-12-31T17:42:23;2.00;;;0.98;;
44985;SDS011;30721;49.380;7.736;2022-12-31T17:45:01;1.63;;;0.95;;
44985;SDS011;30721;49.380;7.736;2022-12-31T17:47:32;0.68;;;0.68;;
44985;SDS011;30721;49.380;7.736;2022-12-31T17:50:06;1.38;;;0.50;;
44985;SDS011;30721;49.380;7.736;2022-12-31T17:52:39;0.65;;;0.52;;
44985;SDS011;30721;49.380;7.736;2022-12-31T17:55:04;1.65;;;0.80;;
44985;SDS011;30721;49.380;7.736;2022-12-31T17:57:29;2.83;;;1.00;;
44985;SDS011;30721;49.380;7.736;2022-12-31T17:59:55;1.20;;;0.73;;
44985;SDS011;30721;49.380;7.736;2022-12-31T18:02:20;1.67;;;0.70;;
44985;SDS011;30721;49.380;7.736;2022-12-31T18:04:46;1.88;;;0.50;;
44985;SDS011;30721;49.380;7.736;2022-12-31T18:07:11;3.28;;;0.57;;
44985;SDS011;30721;49.380;7.736;2022-12-31T18:09:36;1.58;;;0.60;;
44985;SDS011;30721;49.380;7.736;2022-12-31T18:12:02;1.85;;;0.60;;
44985;SDS011;30721;49.380;7.736;2022-12-31T18:14:28;1.25;;;0.60;;
44985;SDS011;30721;49.380;7.736;2022-12-31T18:16:53;1.50;;;0.65;;
44985;SDS011;30721;49.380;7.736;2022-12-31T18:19:19;2.08;;;0.90;;
44985;SDS011;30721;49.380;7.736;2022-12-31T18:21:44;1.17;;;0.90;;
44985;SDS011;30721;49.380;7.736;2022-12-31T18:24:13;2.25;;;1.10;;
44985;SDS011;30721;49.380;7.736;2022-12-31T18:26:40;0.95;;;0.57;;
44985;SDS011;30721;49.380;7.736;2022-12-31T18:29:13;0.52;;;0.50;;
44985;SDS011;30721;49.380;7.736;2022-12-31T18:31:40;1.73;;;0.80;;
44985;SDS011;30721;49.380;7.736;2022-12-31T18:34:08;1.17;;;0.52;;
44985;SDS011;30721;49.380;7.736;2022-12-31T18:36:36;1.38;;;0.77;;
44985;SDS011;30721;49.380;7.736;2022-12-31T18:39:01;0.60;;;0.60;;
44985;SDS011;30721;49.380;7.736;2022-12-31T18:41:30;0.88;;;0.80;;
44985;SDS011;30721;49.380;7.736;2022-12-31T18:44:13;1.05;;;0.60;;
44985;SDS011;30721;49.380;7.736;2022-12-31T18:46:39;1.23;;;0.60;;
44985;SDS011;30721;49.380;7.736;2022-12-31T18:49:05;2.80;;;1.00;;
44985;SDS011;30721;49.380;7.736;2022-12-31T18:51:31;1.27;;;0.80;;
44985;SDS011;30721;49.380;7.736;2022-12-31T18:53:56;1.23;;;0.65;;
44985;SDS011;30721;49.380;7.736;2022-12-31T18:56:22;1.80;;;0.60;;
44985;SDS011;30721;49.380;7.736;2022-12-31T18:58:49;0.70;;;0.70;;
44985;SDS011;30721;49.380;7.736;2022-12-31T19:03:48;1.35;;;1.20;;
44985;SDS011;30721;49.380;7.736;2022-12-31T19:06:14;1.05;;;0.70;;
44985;SDS011;30721;49.380;7.736;2022-12-31T19:08:39;2.75;;;1.00;;
44985;SDS011;30721;49.380;7.736;2022-12-31T19:11:04;1.90;;;0.63;;
44985;SDS011;30721;49.380;7.736;2022-12-31T19:13:30;1.63;;;0.65;;
44985;SDS011;30721;49.380;7.736;2022-12-31T19:15:55;1.20;;;0.98;;
44985;SDS011;30721;49.380;7.736;2022-12-31T19:18:22;1.02;;;0.93;;
44985;SDS011;30721;49.380;7.736;2022-12-31T19:20:48;0.60;;;0.60;;
44985;SDS011;30721;49.380;7.736;2022-12-31T19:23:16;1.10;;;0.75;;
44985;SDS011;30721;49.380;7.736;2022-12-31T19:25:43;0.65;;;0.60;;
44985;SDS011;30721;49.380;7.736;2022-12-31T19:28:16;0.80;;;0.68;;
44985;SDS011;30721;49.380;7.736;2022-12-31T19:30:46;1.00;;;0.60;;
44985;SDS011;30721;49.380;7.736;2022-12-31T19:33:11;0.80;;;0.60;;
44985;SDS011;30721;49.380;7.736;2022-12-31T19:35:37;2.00;;;0.65;;
44985;SDS011;30721;49.380;7.736;2022-12-31T19:38:04;0.85;;;0.70;;
44985;SDS011;30721;49.380;7.736;2022-12-31T19:40:33;2.13;;;0.50;;
44985;SDS011;30721;49.380;7.736;2022-12-31T19:42:58;1.02;;;0.60;;
44985;SDS011;30721;49.380;7.736;2022-12-31T19:45:25;1.05;;;0.88;;
44985;SDS011;30721;49.380;7.736;2022-12-31T19:47:52;2.33;;;0.88;;
44985;SDS011;30721;49.380;7.736;2022-12-31T19:50:22;0.70;;;0.60;;